createdAt,value
2022-11-10T00:00:01.421Z,10.43
2022-11-10T00:02:48.660Z,10.44
2022-11-10T00:05:38.273Z,10.41
2022-11-10T00:08:24.952Z,10.40
2022-11-10T00:11:12.862Z,10.39
2022-11-10T00:14:19.146Z,10.34
2022-11-10T00:17:05.749Z,10.32
2022-11-10T00:19:52.514Z,10.29
2022-11-10T00:22:40.199Z,10.24
2022-11-10T00:25:27.570Z,10.21
2022-11-10T00:28:15.631Z,10.20
2022-11-10T00:31:06.924Z,10.21
2022-11-10T00:33:53.389Z,10.21
2022-11-10T00:36:40.011Z,10.19
2022-11-10T00:39:26.716Z,10.18
2022-11-10T00:42:13.502Z,10.18
2022-11-10T00:45:01.459Z,10.18
2022-11-10T00:47:47.735Z,10.12
2022-11-10T00:50:34.412Z,10.12
2022-11-10T00:53:21.317Z,10.10
2022-11-10T00:56:07.943Z,10.04
2022-11-10T00:58:54.514Z,10.01
2022-11-10T01:01:42.448Z,9.95
2022-11-10T01:04:28.757Z,9.89
2022-11-10T01:07:15.651Z,9.86
2022-11-10T01:10:02.331Z,9.86
2022-11-10T01:12:48.928Z,9.83
2022-11-10T01:15:35.592Z,9.80
2022-11-10T01:18:23.510Z,9.80
2022-11-10T01:21:10.955Z,9.80
2022-11-10T01:23:58.385Z,9.83
2022-11-10T01:26:45.146Z,9.84
2022-11-10T01:29:31.793Z,9.82
2022-11-10T01:32:18.597Z,9.79
2022-11-10T01:35:07.868Z,9.77
2022-11-10T01:37:54.779Z,9.77
2022-11-10T01:40:41.180Z,9.72
2022-11-10T01:43:29.594Z,9.73
2022-11-10T01:46:16.355Z,9.70
2022-11-10T01:49:04.718Z,9.68
2022-11-10T01:51:55.766Z,9.73
2022-11-10T01:54:47.634Z,9.69
2022-11-10T01:57:34.638Z,9.69
2022-11-10T02:00:21.938Z,9.67
2022-11-10T02:03:13.256Z,9.65
2022-11-10T02:06:00.178Z,9.65
2022-11-10T02:08:48.441Z,9.66
2022-11-10T02:11:36.853Z,9.63
2022-11-10T02:14:23.635Z,9.58
2022-11-10T02:17:10.715Z,9.53
2022-11-10T02:20:04.732Z,9.50
2022-11-10T02:22:52.881Z,9.43
2022-11-10T02:25:39.454Z,9.43
2022-11-10T02:28:27.573Z,9.36
2022-11-10T02:31:14.469Z,9.33
2022-11-10T02:34:00.966Z,9.31
2022-11-10T02:39:49.864Z,9.09
2022-11-10T02:42:36.186Z,9.12
2022-11-10T02:45:22.820Z,9.12
2022-11-10T02:48:09.797Z,9.06
2022-11-10T02:50:56.793Z,8.98
2022-11-10T02:53:43.863Z,8.98
2022-11-10T02:56:31.722Z,8.92
2022-11-10T02:59:18.101Z,8.86
2022-11-10T03:02:04.761Z,8.78
2022-11-10T03:04:51.316Z,8.83
2022-11-10T03:07:38.069Z,8.74
2022-11-10T03:10:25.147Z,8.71
2022-11-10T03:13:14.299Z,8.70
2022-11-10T03:16:00.896Z,8.65
2022-11-10T03:18:47.418Z,8.62
2022-11-10T03:21:34.087Z,8.64
2022-11-10T03:24:20.648Z,8.52
2022-11-10T03:27:07.670Z,8.44
2022-11-10T03:29:55.541Z,8.42
2022-11-10T03:32:42.395Z,8.42
2022-11-10T03:35:29.198Z,8.35
2022-11-10T03:38:16.040Z,8.27
2022-11-10T03:41:19.862Z,8.20
2022-11-10T03:44:07.842Z,8.17
2022-11-10T03:46:55.871Z,8.07
2022-11-10T03:49:42.555Z,8.05
2022-11-10T03:52:28.985Z,7.97
2022-11-10T03:55:18.597Z,7.92
2022-11-10T03:58:06.062Z,7.85
2022-11-10T04:00:54.745Z,7.92
2022-11-10T04:03:43.134Z,7.95
2022-11-10T04:06:49.741Z,7.88
2022-11-10T04:09:36.637Z,7.79
2022-11-10T04:12:40.513Z,7.81
2022-11-10T04:15:45.768Z,7.73
2022-11-10T04:18:32.234Z,7.69
2022-11-10T04:21:20.233Z,7.63
2022-11-10T04:24:07.223Z,7.59
2022-11-10T04:26:53.926Z,7.58
2022-11-10T04:29:41.023Z,7.54
2022-11-10T04:32:27.622Z,7.51
2022-11-10T04:35:14.175Z,7.51
2022-11-10T04:38:02.724Z,7.51
2022-11-10T04:40:49.695Z,7.50
2022-11-10T04:43:36.380Z,7.36
2022-11-10T04:46:25.117Z,7.31
2022-11-10T04:49:12.109Z,7.30
2022-11-10T04:51:59.059Z,7.30
2022-11-10T04:54:47.145Z,7.25
2022-11-10T04:57:33.726Z,7.13
2022-11-10T05:00:21.031Z,7.12
2022-11-10T05:03:10.739Z,7.10
2022-11-10T05:05:57.006Z,7.10
2022-11-10T05:08:44.854Z,7.04
2022-11-10T05:11:32.652Z,7.06
2022-11-10T05:14:19.383Z,6.99
2022-11-10T05:17:05.874Z,6.92
2022-11-10T05:19:52.899Z,6.87
2022-11-10T05:22:39.780Z,6.86
2022-11-10T05:25:26.217Z,6.76
2022-11-10T05:28:14.111Z,6.73
2022-11-10T05:31:01.154Z,6.77
2022-11-10T05:33:47.728Z,6.69
2022-11-10T05:36:34.301Z,6.65
2022-11-10T05:39:20.834Z,6.67
2022-11-10T05:42:07.964Z,6.67
2022-11-10T05:44:55.597Z,6.62
2022-11-10T05:47:43.309Z,6.54
2022-11-10T05:50:30.208Z,6.47
2022-11-10T05:53:16.711Z,6.44
2022-11-10T05:56:03.185Z,6.49
2022-11-10T05:58:49.438Z,6.39
2022-11-10T06:01:37.559Z,6.37
2022-11-10T06:04:24.236Z,6.35
2022-11-10T06:07:11.923Z,6.34
2022-11-10T06:09:58.685Z,6.26
2022-11-10T06:12:46.643Z,6.30
2022-11-10T06:15:34.266Z,6.22
2022-11-10T06:18:22.293Z,6.30
2022-11-10T06:21:08.652Z,6.29
2022-11-10T06:23:55.270Z,6.23
2022-11-10T06:26:42.087Z,6.26
2022-11-10T06:29:28.549Z,6.23
2022-11-10T06:32:15.251Z,6.21
2022-11-10T06:35:03.226Z,6.15
2022-11-10T06:38:00.683Z,6.11
2022-11-10T06:40:47.598Z,6.15
2022-11-10T06:43:33.996Z,6.18
2022-11-10T06:46:20.200Z,6.19
2022-11-10T06:49:07.352Z,6.16
2022-11-10T06:51:55.026Z,6.21
2022-11-10T06:54:41.679Z,6.17
2022-11-10T06:57:28.661Z,6.25
2022-11-10T07:00:17.962Z,6.27
2022-11-10T07:03:06.567Z,6.29
2022-11-10T07:05:53.042Z,6.38
2022-11-10T07:08:40.918Z,6.29
2022-11-10T07:11:27.257Z,6.33
2022-11-10T07:14:13.921Z,6.42
2022-11-10T07:17:00.906Z,6.42
2022-11-10T07:19:47.479Z,6.49
2022-11-10T07:22:34.365Z,6.57
2022-11-10T07:25:22.427Z,6.61
2022-11-10T07:28:10.615Z,6.57
2022-11-10T07:30:57.000Z,6.67
2022-11-10T07:33:44.093Z,6.66
2022-11-10T07:36:30.749Z,6.69
2022-11-10T07:39:17.390Z,6.74
2022-11-10T07:42:05.511Z,6.81
2022-11-10T07:44:52.316Z,6.86
2022-11-10T07:47:38.690Z,6.90
2022-11-10T07:50:25.367Z,6.94
2022-11-10T07:53:13.491Z,7.01
2022-11-10T07:56:00.362Z,7.06
2022-11-10T07:58:49.520Z,7.06
2022-11-10T08:01:36.010Z,7.11
2022-11-10T08:04:22.778Z,7.17
2022-11-10T08:07:09.603Z,7.25
2022-11-10T08:09:56.155Z,7.29
2022-11-10T08:12:42.603Z,7.31
2022-11-10T08:15:31.875Z,7.40
2022-11-10T08:18:20.692Z,7.48
2022-11-10T08:21:07.684Z,7.55
2022-11-10T08:23:54.840Z,7.62
2022-11-10T08:26:42.162Z,7.70
2022-11-10T08:29:28.950Z,7.73
2022-11-10T08:32:17.119Z,7.84
2022-11-10T08:35:03.867Z,7.88
2022-11-10T08:37:50.238Z,7.92
2022-11-10T08:40:37.035Z,8.02
2022-11-10T08:43:23.890Z,8.08
2022-11-10T08:46:10.886Z,8.15
2022-11-10T08:48:58.852Z,8.23
2022-11-10T08:51:45.689Z,8.25
2022-11-10T08:54:32.030Z,8.32
2022-11-10T08:57:18.669Z,8.37
2022-11-10T09:00:06.598Z,8.42
2022-11-10T09:02:53.195Z,8.49
2022-11-10T09:05:41.911Z,8.56
2022-11-10T09:08:28.527Z,8.59
2022-11-10T09:11:15.171Z,8.64
2022-11-10T09:14:01.795Z,8.65
2022-11-10T09:16:48.240Z,8.69
2022-11-10T09:19:34.939Z,8.73
2022-11-10T09:22:22.787Z,8.83
2022-11-10T09:25:10.227Z,8.86
2022-11-10T09:27:56.875Z,8.94
2022-11-10T09:30:46.308Z,9.02
2022-11-10T09:33:32.878Z,9.10
2022-11-10T09:36:19.512Z,9.17
2022-11-10T09:39:08.372Z,9.22
2022-11-10T09:41:54.896Z,9.29
2022-11-10T09:44:51.356Z,9.32
2022-11-10T09:47:56.751Z,9.38
2022-11-10T09:50:50.450Z,9.41
2022-11-10T09:53:41.537Z,9.46
2022-11-10T09:56:33.794Z,9.58
2022-11-10T09:59:26.656Z,9.62
2022-11-10T10:02:23.742Z,9.68
2022-11-10T10:05:46.444Z,9.72
2022-11-10T10:08:45.566Z,9.74
2022-11-10T10:11:44.799Z,9.80
2022-11-10T10:14:52.663Z,9.85
2022-11-10T10:17:45.907Z,9.92
2022-11-10T10:20:41.904Z,9.95
2022-11-10T10:24:07.085Z,9.95
2022-11-10T10:26:49.855Z,10.02
2022-11-10T10:29:40.911Z,10.08
2022-11-10T10:32:28.202Z,10.12
2022-11-10T10:35:16.359Z,10.13
2022-11-10T10:38:05.308Z,10.18
2022-11-10T10:40:53.981Z,10.22
2022-11-10T10:43:43.456Z,10.28
2022-11-10T10:46:35.775Z,10.29
2022-11-10T10:49:29.009Z,10.35
2022-11-10T10:52:17.437Z,10.39
2022-11-10T10:55:09.687Z,10.39
2022-11-10T10:58:01.179Z,10.37
2022-11-10T11:00:51.725Z,10.42
2022-11-10T11:03:43.888Z,10.48
2022-11-10T11:06:32.157Z,10.48
2022-11-10T11:09:23.854Z,10.47
2022-11-10T11:12:14.178Z,10.50
2022-11-10T11:15:15.126Z,10.50
2022-11-10T11:18:11.885Z,10.51
2022-11-10T11:21:03.608Z,10.60
2022-11-10T11:24:07.313Z,10.63
2022-11-10T11:27:00.538Z,10.61
2022-11-10T11:30:02.751Z,10.67
2022-11-10T11:33:21.390Z,10.76
2022-11-10T11:36:21.815Z,10.76
2022-11-10T11:39:20.490Z,10.81
2022-11-10T11:42:17.606Z,10.82
2022-11-10T11:45:21.562Z,10.82
2022-11-10T11:48:34.592Z,10.87
2022-11-10T11:51:29.545Z,10.88
2022-11-10T11:54:38.198Z,10.94
2022-11-10T11:57:38.804Z,10.96
2022-11-10T12:00:26.918Z,10.97
2022-11-10T12:03:35.443Z,11.02
2022-11-10T12:06:34.294Z,10.98
2022-11-10T12:09:31.325Z,10.97
2022-11-10T12:12:38.419Z,10.96
2022-11-10T12:15:34.549Z,11.04
2022-11-10T12:18:31.453Z,11.05
2022-11-10T12:21:38.102Z,11.04
2022-11-10T12:24:38.398Z,11.03
2022-11-10T12:27:28.695Z,11.08
2022-11-10T12:30:17.449Z,11.16
2022-11-10T12:33:08.568Z,11.13
2022-11-10T12:35:56.273Z,11.18
2022-11-10T12:38:59.546Z,11.19
2022-11-10T12:41:49.724Z,11.17
2022-11-10T12:44:40.514Z,11.19
2022-11-10T12:47:31.503Z,11.25
2022-11-10T12:50:29.604Z,11.25
2022-11-10T12:53:22.957Z,11.20
2022-11-10T12:56:18.856Z,11.18
2022-11-10T12:59:26.308Z,11.24
2022-11-10T13:02:24.748Z,11.26
2022-11-10T13:05:29.177Z,11.23
2022-11-10T13:08:27.929Z,11.23
2022-11-10T13:11:28.829Z,11.25
2022-11-10T13:14:24.623Z,11.30
2022-11-10T13:17:49.691Z,11.30
2022-11-10T13:20:52.129Z,11.33
2022-11-10T13:24:18.245Z,11.31
2022-11-10T13:27:11.294Z,11.34
2022-11-10T13:29:59.683Z,11.36
2022-11-10T13:32:46.034Z,11.39
2022-11-10T13:35:55.467Z,11.40
2022-11-10T13:38:44.323Z,11.40
2022-11-10T13:41:34.716Z,11.42
2022-11-10T13:44:26.275Z,11.41
2022-11-10T13:47:37.142Z,11.41
2022-11-10T13:50:35.172Z,11.39
2022-11-10T13:53:33.868Z,11.39
2022-11-10T13:56:36.650Z,11.39
2022-11-10T13:59:27.299Z,11.38
2022-11-10T14:02:56.214Z,11.39
2022-11-10T14:06:09.103Z,11.38
2022-11-10T14:09:00.691Z,11.36
2022-11-10T14:11:50.687Z,11.34
2022-11-10T14:14:50.343Z,11.35
2022-11-10T14:17:42.621Z,11.38
2022-11-10T14:20:34.732Z,11.34
2022-11-10T14:23:26.994Z,11.33
2022-11-10T14:26:23.163Z,11.30
2022-11-10T14:29:29.755Z,11.25
2022-11-10T14:32:22.255Z,11.30
2022-11-10T14:35:20.567Z,11.29
2022-11-10T14:38:20.407Z,11.30
2022-11-10T14:41:08.261Z,11.30
2022-11-10T14:44:03.337Z,11.24
2022-11-10T14:46:49.734Z,11.17
2022-11-10T14:49:37.738Z,11.22
2022-11-10T14:52:24.243Z,11.23
2022-11-10T14:55:17.233Z,11.17
2022-11-10T14:58:11.730Z,11.16
2022-11-10T15:00:58.065Z,11.14
2022-11-10T15:03:45.015Z,11.15
2022-11-10T15:06:33.653Z,11.15
2022-11-10T15:09:28.327Z,11.12
2022-11-10T15:12:29.769Z,11.08
2022-11-10T15:15:20.963Z,11.05
2022-11-10T15:18:08.286Z,11.00
2022-11-10T15:21:02.102Z,10.93
2022-11-10T15:23:57.910Z,10.87
2022-11-10T15:26:44.590Z,10.81
2022-11-10T15:29:31.941Z,10.73
2022-11-10T15:32:21.141Z,10.66
2022-11-10T15:35:09.788Z,10.61
2022-11-10T15:38:01.365Z,10.55
2022-11-10T15:40:51.346Z,10.48
2022-11-10T15:43:37.927Z,10.41
2022-11-10T15:46:27.293Z,10.32
2022-11-10T15:49:20.819Z,10.21
2022-11-10T15:52:14.791Z,10.15
2022-11-10T15:55:01.568Z,10.09
2022-11-10T15:57:49.686Z,10.04
2022-11-10T16:00:35.910Z,10.02
2022-11-10T16:03:24.434Z,10.03
2022-11-10T16:06:13.626Z,10.03
2022-11-10T16:09:00.588Z,9.97
2022-11-10T16:11:47.364Z,10.00
2022-11-10T16:14:35.367Z,10.00
2022-11-10T16:17:22.112Z,9.97
2022-11-10T16:20:14.922Z,9.95
2022-11-10T16:23:01.335Z,9.85
2022-11-10T16:25:50.403Z,9.83
2022-11-10T16:28:36.655Z,9.64
2022-11-10T16:31:24.547Z,9.53
2022-11-10T16:34:13.743Z,9.47
2022-11-10T16:39:43.559Z,9.36
2022-11-10T16:42:29.741Z,9.27
2022-11-10T16:45:18.285Z,9.23
2022-11-10T16:48:08.136Z,9.11
2022-11-10T16:50:56.683Z,9.04
2022-11-10T16:53:43.305Z,8.97
2022-11-10T16:56:31.052Z,8.92
2022-11-10T16:59:18.008Z,8.83
2022-11-10T17:02:04.810Z,8.78
2022-11-10T17:04:51.353Z,8.71
2022-11-10T17:07:39.339Z,8.66
2022-11-10T17:10:26.092Z,8.71
2022-11-10T17:13:14.433Z,8.72
2022-11-10T17:16:06.225Z,8.70
2022-11-10T17:18:52.977Z,8.65
2022-11-10T17:21:40.053Z,8.66
2022-11-10T17:24:26.828Z,8.66
2022-11-10T17:27:13.433Z,8.65
2022-11-10T17:30:01.445Z,8.52
2022-11-10T17:33:05.510Z,8.55
2022-11-10T17:35:54.489Z,8.53
2022-11-10T17:38:42.007Z,8.48
2022-11-10T17:41:29.049Z,8.38
2022-11-10T17:44:17.947Z,8.33
2022-11-10T17:47:05.769Z,8.30
2022-11-10T17:49:52.690Z,8.20
2022-11-10T17:52:39.313Z,8.21
2022-11-10T17:55:33.801Z,8.18
2022-11-10T17:58:20.599Z,8.14
2022-11-10T18:01:12.175Z,8.13
2022-11-10T18:04:00.446Z,8.14
2022-11-10T18:06:47.314Z,8.11
2022-11-10T18:09:33.964Z,8.05
2022-11-10T18:12:25.282Z,8.03
2022-11-10T18:15:15.309Z,7.95
2022-11-10T18:18:01.650Z,7.91
2022-11-10T18:20:50.161Z,7.84
2022-11-10T18:23:36.922Z,7.78
2022-11-10T18:26:23.275Z,7.73
2022-11-10T18:29:09.919Z,7.68
2022-11-10T18:31:56.463Z,7.68
2022-11-10T18:34:45.639Z,7.63
2022-11-10T18:37:39.068Z,7.56
2022-11-10T18:40:26.692Z,7.47
2022-11-10T18:43:13.188Z,7.50
2022-11-10T18:45:59.740Z,7.43
2022-11-10T18:48:47.011Z,7.37
2022-11-10T18:51:33.532Z,7.34
2022-11-10T18:54:21.524Z,7.28
2022-11-10T18:57:08.374Z,7.25
2022-11-10T18:59:54.866Z,7.25
2022-11-10T19:02:43.115Z,7.23
2022-11-10T19:05:30.111Z,7.19
2022-11-10T19:08:17.242Z,7.16
2022-11-10T19:11:08.798Z,7.09
2022-11-10T19:13:55.595Z,7.05
2022-11-10T19:16:42.027Z,7.05
2022-11-10T19:19:28.669Z,7.03
2022-11-10T19:22:15.084Z,7.01
2022-11-10T19:25:08.299Z,6.93
2022-11-10T19:27:57.619Z,6.98
2022-11-10T19:30:43.822Z,6.93
2022-11-10T19:33:31.952Z,6.93
2022-11-10T19:36:21.024Z,6.91
2022-11-10T19:39:07.580Z,6.88
2022-11-10T19:41:54.048Z,6.85
2022-11-10T19:44:42.077Z,6.77
2022-11-10T19:47:28.566Z,6.71
2022-11-10T19:50:15.328Z,6.71
2022-11-10T19:53:02.054Z,6.64
2022-11-10T19:55:48.973Z,6.66
2022-11-10T19:58:36.992Z,6.62
2022-11-10T20:01:25.006Z,6.61
2022-11-10T20:04:12.628Z,6.56
2022-11-10T20:07:12.980Z,6.54
2022-11-10T20:10:00.278Z,6.49
2022-11-10T20:12:47.062Z,6.46
2022-11-10T20:15:33.677Z,6.48
2022-11-10T20:18:21.818Z,6.40
2022-11-10T20:21:10.331Z,6.43
2022-11-10T20:23:57.875Z,6.42
2022-11-10T20:26:44.219Z,6.39
2022-11-10T20:29:31.066Z,6.40
2022-11-10T20:32:17.655Z,6.29
2022-11-10T20:35:06.004Z,6.26
2022-11-10T20:37:52.534Z,6.20
2022-11-10T20:40:44.545Z,6.18
2022-11-10T20:43:34.490Z,6.15
2022-11-10T20:46:48.441Z,6.06
2022-11-10T20:49:29.444Z,6.01
2022-11-10T20:52:18.039Z,6.00
2022-11-10T20:55:05.481Z,6.03
2022-11-10T20:57:52.188Z,5.93
2022-11-10T21:00:38.818Z,5.93
2022-11-10T21:03:25.803Z,5.90
2022-11-10T21:06:12.764Z,5.89
2022-11-10T21:09:00.682Z,5.80
2022-11-10T21:12:05.124Z,5.77
2022-11-10T21:14:51.566Z,5.74
2022-11-10T21:17:43.851Z,5.74
2022-11-10T21:20:33.799Z,5.72
2022-11-10T21:23:20.496Z,5.70
2022-11-10T21:26:09.210Z,5.67
2022-11-10T21:28:56.105Z,5.57
2022-11-10T21:31:42.927Z,5.55
2022-11-10T21:34:29.475Z,5.48
2022-11-10T21:37:16.273Z,5.48
2022-11-10T21:40:02.754Z,5.48
2022-11-10T21:42:55.230Z,5.47
2022-11-10T21:45:42.026Z,5.50
2022-11-10T21:48:28.590Z,5.49
2022-11-10T21:51:15.537Z,5.44
2022-11-10T21:54:01.911Z,5.40
2022-11-10T21:56:48.972Z,5.33
2022-11-10T21:59:36.776Z,5.34
2022-11-10T22:02:23.552Z,5.37
2022-11-10T22:05:10.302Z,5.43
2022-11-10T22:07:56.842Z,5.41
2022-11-10T22:11:01.066Z,5.42
2022-11-10T22:14:05.487Z,5.38
2022-11-10T22:17:11.566Z,5.33
2022-11-10T22:19:58.254Z,5.32
2022-11-10T22:22:45.311Z,5.34
2022-11-10T22:25:32.172Z,5.34
2022-11-10T22:28:21.320Z,5.32
2022-11-10T22:31:09.578Z,5.32
2022-11-10T22:33:57.525Z,5.29
2022-11-10T22:36:44.035Z,5.24
2022-11-10T22:39:44.392Z,5.23
2022-11-10T22:42:48.614Z,5.27
2022-11-10T22:45:35.467Z,5.30
2022-11-10T22:48:28.382Z,5.24
2022-11-10T22:51:16.326Z,5.18
2022-11-10T22:54:04.049Z,5.09
2022-11-10T22:56:51.556Z,5.13
2022-11-10T22:59:38.436Z,5.10
2022-11-10T23:02:25.104Z,5.06
2022-11-10T23:05:11.665Z,5.04
2022-11-10T23:07:59.266Z,5.03
2022-11-10T23:10:45.846Z,5.01
2022-11-10T23:13:34.062Z,4.93
2022-11-10T23:16:22.583Z,4.88
2022-11-10T23:19:11.569Z,4.86
2022-11-10T23:21:57.761Z,4.79
2022-11-10T23:24:45.788Z,4.79
2022-11-10T23:27:34.165Z,4.77
2022-11-10T23:30:20.438Z,4.75
2022-11-10T23:33:06.911Z,4.74
2022-11-10T23:35:53.742Z,4.72
2022-11-10T23:38:41.172Z,4.75
2022-11-10T23:41:29.184Z,4.85
2022-11-10T23:44:15.827Z,4.81
2022-11-10T23:47:02.334Z,4.76
2022-11-10T23:49:48.959Z,4.68
2022-11-10T23:52:35.621Z,4.73
2022-11-10T23:55:22.727Z,4.65
2022-11-10T23:58:11.038Z,4.58
